Portada
METAR-TAF:

METAR-TAF

Aeroports :

Bratsk, Rússia

latitud: 56-22-15N, longitud: 101-41-55E, altitud: 490 m

Observació

L'informe es va fer fa 34 minuts, a les 11:30 UTC
Vent 6 kt del Nord-Est, variant entre Nord i Est
Temperatura 17°C
Humitat 39%
Pressió 1004 hPa
Visibilitat 10 km o més

METAR: UIBB 051130Z 04003MPS 010V080 9999 NSC 17/03 Q1004 R30/CLRD60 NOSIG RMK QFE711/0948

Hora: 20:04 (12:04 UTC)

Pronòstic

L'informe es va fer fa 1 hora i 4 minuts, a les 11:00 UTC
Pronòstic vàlid del 05 a les 12 UTC al 06 a les 12 UTC
Vent 6 kt del Est
Visibilitat 10 km o més
Núvols disperses a una alçada de 1600 ft, Cumulonimbus.
A partir de les 06 a les 0000 UTC
Vent 10 kt del Nord/Nord-Est
Visibilitat 10 km o més
Escasses núvols a una alçada de 300 ft
Cel ennuvolat a una alçada de 1200 ft, Cumulonimbus.
xàfecs de pluja

TAF: UIBB 051100Z 0512/0612 10003MPS 9999 SCT016CB FM060000 02005MPS 9999 -SHRA FEW003 BKN012CB

Observacions i pronòstics meteorològics de més de 4000 aeroports (METAR i TAF).

Les estacions disponibles són els punts grocs i vermells al mapa.

Posi el ratolí al punt desitjat per veure el nom de l'estació.

Feu clic per veure les observacions i els pronòstics meteorològics.

Per canviar el mapa: feu clic els botons verds amb una creu de color negre per apropar; al botó verd amb un guió per allunyar la imatge; o en les fletxes verdes per a mapes adjacents.


METAR-TAF: